createdAt,value
2019-05-14T00:00:34.433Z,31.40
2019-05-14T00:01:34.420Z,31.40
2019-05-14T00:02:34.419Z,31.22
2019-05-14T00:03:34.425Z,31.51
2019-05-14T00:04:34.389Z,31.51
2019-05-14T00:05:34.385Z,31.60
2019-05-14T00:06:34.365Z,31.40
2019-05-14T00:07:34.380Z,31.21
2019-05-14T00:08:34.343Z,31.21
2019-05-14T00:09:34.328Z,31.52
2019-05-14T00:10:34.581Z,31.62
2019-05-14T00:11:34.309Z,31.40
2019-05-14T00:12:34.304Z,31.21
2019-05-14T00:13:34.299Z,31.51
2019-05-14T00:14:39.831Z,31.42
2019-05-14T00:15:34.268Z,31.62
2019-05-14T00:16:34.254Z,31.40
2019-05-14T00:17:34.247Z,31.21
2019-05-14T00:18:34.237Z,31.62
2019-05-14T00:19:34.221Z,31.42
2019-05-14T00:20:34.212Z,31.62
2019-05-14T00:21:34.237Z,31.60
2019-05-14T00:22:34.194Z,31.22
2019-05-14T00:23:34.190Z,31.42
2019-05-14T00:24:34.168Z,31.42
2019-05-14T00:25:34.163Z,31.42
2019-05-14T00:26:34.175Z,31.62
2019-05-14T00:27:34.133Z,31.62
2019-05-14T00:28:34.139Z,31.42
2019-05-14T00:29:34.116Z,31.52
2019-05-14T00:30:34.167Z,31.62
2019-05-14T00:31:34.097Z,31.60
2019-05-14T00:32:34.097Z,31.62
2019-05-14T00:33:34.089Z,31.62
2019-05-14T00:34:34.071Z,31.82
2019-05-14T00:35:35.763Z,31.51
2019-05-14T00:36:34.044Z,31.72
2019-05-14T00:37:34.080Z,31.72
2019-05-14T00:38:34.042Z,31.72
2019-05-14T00:39:34.011Z,31.72
2019-05-14T00:40:34.003Z,31.52
2019-05-14T00:41:34.006Z,31.62
2019-05-14T00:42:33.978Z,31.62
2019-05-14T00:43:33.993Z,31.62
2019-05-14T00:44:33.969Z,31.62
2019-05-14T00:45:33.944Z,31.62
2019-05-14T00:46:33.948Z,31.62
2019-05-14T00:47:33.918Z,31.42
2019-05-14T00:48:33.918Z,31.72
2019-05-14T00:49:33.901Z,31.52
2019-05-14T00:50:33.892Z,31.52
2019-05-14T00:51:33.880Z,31.62
2019-05-14T00:52:33.876Z,31.62
2019-05-14T00:53:33.868Z,31.72
2019-05-14T00:54:33.853Z,31.62
2019-05-14T00:55:33.848Z,31.72
2019-05-14T00:56:33.833Z,31.42
2019-05-14T00:57:33.817Z,31.62
2019-05-14T00:58:33.807Z,31.82
2019-05-14T00:59:33.796Z,31.22
2019-05-14T01:00:33.787Z,31.52
2019-05-14T01:01:33.776Z,31.52
2019-05-14T01:02:33.769Z,31.52
2019-05-14T01:03:33.760Z,31.72
2019-05-14T01:04:33.743Z,31.62
2019-05-14T01:05:33.729Z,31.52
2019-05-14T01:06:33.718Z,31.62
2019-05-14T01:07:33.711Z,31.62
2019-05-14T01:08:33.696Z,31.72
2019-05-14T01:09:33.690Z,31.72
2019-05-14T01:10:33.676Z,31.42
2019-05-14T01:11:33.674Z,31.62
2019-05-14T01:12:33.651Z,31.52
2019-05-14T01:13:33.656Z,31.62
2019-05-14T01:14:33.634Z,31.72
2019-05-14T01:15:33.622Z,31.82
2019-05-14T01:16:33.627Z,31.52
2019-05-14T01:17:33.612Z,31.52
2019-05-14T01:18:33.591Z,31.72
2019-05-14T01:19:33.594Z,31.42
2019-05-14T01:20:33.573Z,31.52
2019-05-14T01:21:33.562Z,31.62
2019-05-14T01:22:33.545Z,31.52
2019-05-14T01:23:33.535Z,31.62
2019-05-14T01:24:33.523Z,31.62
2019-05-14T01:25:33.516Z,31.42
2019-05-14T01:26:33.521Z,31.62
2019-05-14T01:27:33.502Z,31.42
2019-05-14T01:28:33.527Z,31.42
2019-05-14T01:29:33.472Z,31.52
2019-05-14T01:30:33.470Z,31.42
2019-05-14T01:31:33.452Z,31.42
2019-05-14T01:32:33.437Z,31.22
2019-05-14T01:33:33.437Z,31.22
2019-05-14T01:34:33.457Z,31.32
2019-05-14T01:35:33.407Z,31.22
2019-05-14T01:36:33.405Z,31.32
2019-05-14T01:37:33.397Z,31.32
2019-05-14T01:38:33.374Z,31.42
2019-05-14T01:39:33.369Z,31.52
2019-05-14T01:40:33.384Z,31.32
2019-05-14T01:41:33.352Z,31.32
2019-05-14T01:42:33.335Z,31.32
2019-05-14T01:43:33.323Z,31.52
2019-05-14T01:44:33.328Z,31.32
2019-05-14T01:45:33.302Z,31.62
2019-05-14T01:46:33.307Z,31.42
2019-05-14T01:47:33.296Z,31.32
2019-05-14T01:48:33.277Z,31.32
2019-05-14T01:49:33.258Z,31.32
2019-05-14T01:50:33.261Z,31.32
2019-05-14T01:51:33.239Z,31.42
2019-05-14T01:52:33.228Z,31.32
2019-05-14T01:53:33.229Z,31.62
2019-05-14T01:54:33.205Z,31.32
2019-05-14T01:55:33.192Z,31.32
2019-05-14T01:56:33.179Z,31.32
2019-05-14T01:57:33.172Z,31.32
2019-05-14T01:58:33.173Z,31.42
2019-05-14T01:59:33.148Z,31.52
2019-05-14T02:00:33.131Z,31.24
2019-05-14T02:01:33.129Z,31.34
2019-05-14T02:02:33.116Z,31.32
2019-05-14T02:03:33.115Z,31.12
2019-05-14T02:04:33.105Z,31.02
2019-05-14T02:05:33.089Z,30.82
2019-05-14T02:06:33.071Z,31.02
2019-05-14T02:07:33.058Z,31.02
2019-05-14T02:08:33.057Z,30.92
2019-05-14T02:09:33.050Z,30.82
2019-05-14T02:10:33.028Z,30.92
2019-05-14T02:11:33.034Z,30.82
2019-05-14T02:12:33.027Z,31.02
2019-05-14T02:13:32.998Z,30.92
2019-05-14T02:14:33.004Z,30.82
2019-05-14T02:15:39.560Z,31.22
2019-05-14T02:16:32.961Z,30.82
2019-05-14T02:17:32.966Z,31.42
2019-05-14T02:18:32.941Z,31.62
2019-05-14T02:19:32.951Z,30.93
2019-05-14T02:20:32.923Z,31.42
2019-05-14T02:21:32.911Z,30.92
2019-05-14T02:22:32.913Z,30.83
2019-05-14T02:23:32.887Z,31.43
2019-05-14T02:24:32.882Z,31.42
2019-05-14T02:25:32.865Z,31.22
2019-05-14T02:26:32.857Z,31.12
2019-05-14T02:27:34.991Z,31.42
2019-05-14T02:28:32.835Z,31.34
2019-05-14T02:29:32.833Z,31.43
2019-05-14T02:30:46.707Z,31.22
2019-05-14T02:31:32.799Z,31.22
2019-05-14T02:32:32.795Z,31.32
2019-05-14T02:33:32.777Z,31.12
2019-05-14T02:34:32.785Z,31.32
2019-05-14T02:35:32.767Z,30.82
2019-05-14T02:36:32.740Z,31.32
2019-05-14T02:37:32.737Z,31.12
2019-05-14T02:38:32.739Z,31.32
2019-05-14T02:39:32.725Z,31.32
2019-05-14T02:40:32.716Z,31.32
2019-05-14T02:41:32.696Z,31.42
2019-05-14T02:42:32.684Z,31.34
2019-05-14T02:43:32.710Z,31.32
2019-05-14T02:44:32.708Z,31.43
2019-05-14T02:45:32.651Z,31.34
2019-05-14T02:46:32.642Z,31.24
2019-05-14T02:47:32.629Z,31.13
2019-05-14T02:48:32.625Z,31.13
2019-05-14T02:49:32.604Z,31.43
2019-05-14T02:50:32.649Z,31.34
2019-05-14T02:51:32.583Z,31.13
2019-05-14T02:52:32.568Z,31.43
2019-05-14T02:53:32.568Z,31.63
2019-05-14T02:54:32.559Z,31.24
2019-05-14T02:55:32.549Z,31.42
2019-05-14T02:56:32.534Z,31.43
2019-05-14T02:57:32.517Z,31.04
2019-05-14T02:58:32.514Z,31.24
2019-05-14T02:59:32.498Z,31.13
2019-05-14T03:00:32.519Z,31.62
2019-05-14T03:01:32.490Z,31.43
2019-05-14T03:02:32.471Z,31.63
2019-05-14T03:03:32.465Z,31.34
2019-05-14T03:04:32.449Z,31.63
2019-05-14T03:05:32.442Z,31.43
2019-05-14T03:06:32.428Z,31.63
2019-05-14T03:07:32.424Z,31.34
2019-05-14T03:08:32.419Z,31.04
2019-05-14T03:09:32.411Z,31.13
2019-05-14T03:10:32.384Z,31.24
2019-05-14T03:11:32.375Z,31.34
2019-05-14T03:12:32.359Z,31.34
2019-05-14T03:13:32.351Z,31.43
2019-05-14T03:14:32.343Z,31.24
2019-05-14T03:15:32.334Z,31.43
2019-05-14T03:16:35.604Z,31.54
2019-05-14T03:17:32.315Z,30.74
2019-05-14T03:18:32.307Z,31.13
2019-05-14T03:19:32.303Z,31.24
2019-05-14T03:20:32.279Z,31.43
2019-05-14T03:21:32.272Z,31.63
2019-05-14T03:22:46.039Z,31.54
2019-05-14T03:23:32.247Z,31.63
2019-05-14T03:24:32.243Z,31.84
2019-05-14T03:25:32.217Z,31.63
2019-05-14T03:26:32.213Z,31.63
2019-05-14T03:27:32.196Z,31.93
2019-05-14T03:28:32.183Z,31.93
2019-05-14T03:29:32.182Z,32.03
2019-05-14T03:30:33.168Z,32.03
2019-05-14T03:31:33.529Z,31.84
2019-05-14T03:32:33.320Z,31.84
2019-05-14T03:33:33.785Z,32.03
2019-05-14T03:34:33.447Z,32.03
2019-05-14T03:35:41.564Z,31.84
2019-05-14T03:36:34.889Z,31.34
2019-05-14T03:37:32.087Z,31.93
2019-05-14T03:38:32.081Z,31.54
2019-05-14T03:39:32.081Z,31.72
2019-05-14T03:40:32.072Z,31.63
2019-05-14T03:41:32.057Z,31.42
2019-05-14T03:42:32.041Z,31.42
2019-05-14T03:43:32.036Z,31.63
2019-05-14T03:44:32.008Z,31.72
2019-05-14T03:45:32.024Z,31.52
2019-05-14T03:46:45.627Z,31.52
2019-05-14T03:47:31.994Z,31.42
2019-05-14T03:48:31.976Z,31.52
2019-05-14T03:49:31.957Z,31.62
2019-05-14T03:50:31.954Z,31.62
2019-05-14T03:51:31.939Z,31.63
2019-05-14T03:52:31.926Z,31.42
2019-05-14T03:53:31.966Z,31.22
2019-05-14T03:54:31.932Z,31.22
2019-05-14T03:55:31.899Z,31.22
2019-05-14T03:56:31.881Z,31.42
2019-05-14T03:57:31.887Z,31.52
2019-05-14T03:58:31.868Z,31.32
2019-05-14T03:59:31.882Z,31.22
2019-05-14T04:00:31.863Z,31.32
2019-05-14T04:01:31.832Z,31.42
2019-05-14T04:02:31.824Z,31.32
2019-05-14T04:03:31.810Z,31.42
2019-05-14T04:04:31.813Z,31.32
2019-05-14T04:05:31.849Z,31.32
2019-05-14T04:06:31.773Z,31.43
2019-05-14T04:07:31.789Z,31.12
2019-05-14T04:08:31.768Z,31.32
2019-05-14T04:09:31.761Z,31.42
2019-05-14T04:10:31.742Z,31.62
2019-05-14T04:11:31.731Z,31.32
2019-05-14T04:12:31.727Z,31.32
2019-05-14T04:13:31.709Z,31.52
2019-05-14T04:14:31.682Z,31.32
2019-05-14T04:15:31.683Z,31.62
2019-05-14T04:16:31.699Z,31.32
2019-05-14T04:17:37.340Z,31.42
2019-05-14T04:18:31.659Z,31.82
2019-05-14T04:19:31.654Z,31.02
2019-05-14T04:20:31.632Z,31.12
2019-05-14T04:21:31.618Z,31.32
2019-05-14T04:22:31.612Z,31.32
2019-05-14T04:23:31.596Z,31.32
2019-05-14T04:24:31.584Z,31.42
2019-05-14T04:25:31.580Z,30.82
2019-05-14T04:26:31.580Z,30.82
2019-05-14T04:27:31.544Z,31.12
2019-05-14T04:28:31.541Z,31.22
2019-05-14T04:29:31.541Z,31.42
2019-05-14T04:30:32.008Z,30.82
2019-05-14T04:31:31.510Z,30.82
2019-05-14T04:32:31.620Z,30.82
2019-05-14T04:33:31.493Z,30.82
2019-05-14T04:34:32.020Z,31.42
2019-05-14T04:35:31.470Z,31.32
2019-05-14T04:36:31.468Z,30.92
2019-05-14T04:37:31.456Z,31.32
2019-05-14T04:38:31.448Z,31.42
2019-05-14T04:39:31.417Z,31.12
2019-05-14T04:40:31.411Z,31.42
2019-05-14T04:41:31.403Z,31.42
2019-05-14T04:42:31.409Z,31.42
2019-05-14T04:43:31.393Z,31.42
2019-05-14T04:44:31.362Z,31.32
2019-05-14T04:45:31.383Z,31.21
2019-05-14T04:46:31.571Z,31.42
2019-05-14T04:47:36.782Z,31.30
2019-05-14T04:48:37.135Z,31.42
2019-05-14T04:49:31.348Z,31.32
2019-05-14T04:50:31.303Z,31.32
2019-05-14T04:51:31.290Z,31.22
2019-05-14T04:52:31.289Z,30.82
2019-05-14T04:53:31.314Z,31.32
2019-05-14T04:54:31.265Z,30.72
2019-05-14T04:55:31.274Z,31.32
2019-05-14T04:56:31.260Z,31.22
2019-05-14T04:57:31.229Z,31.32
2019-05-14T04:58:31.223Z,31.32
2019-05-14T04:59:31.224Z,31.32
2019-05-14T05:00:31.199Z,31.42
2019-05-14T05:01:31.203Z,31.62
2019-05-14T05:02:31.197Z,31.32
2019-05-14T05:03:31.807Z,31.22
2019-05-14T05:04:31.170Z,31.62
2019-05-14T05:05:31.146Z,31.62
2019-05-14T05:06:31.153Z,31.42
2019-05-14T05:07:31.122Z,31.32
2019-05-14T05:08:31.141Z,31.22
2019-05-14T05:09:31.094Z,29.72
2019-05-14T05:10:31.105Z,28.53
2019-05-14T05:11:31.081Z,27.83
2019-05-14T05:12:31.068Z,27.23
2019-05-14T05:13:31.128Z,27.64
2019-05-14T05:14:31.048Z,27.34
2019-05-14T05:15:31.035Z,27.34
2019-05-14T05:16:31.029Z,26.75
2019-05-14T05:17:42.946Z,27.06
2019-05-14T05:18:31.005Z,27.26
2019-05-14T05:19:30.991Z,26.87
2019-05-14T05:20:30.982Z,27.67
2019-05-14T05:21:30.992Z,27.07
2019-05-14T05:22:30.960Z,26.77
2019-05-14T05:23:30.959Z,27.07
2019-05-14T05:24:30.950Z,26.68
2019-05-14T05:25:30.927Z,27.08
2019-05-14T05:26:30.919Z,26.98
2019-05-14T05:27:30.907Z,27.08
2019-05-14T05:28:30.891Z,26.70
2019-05-14T05:29:30.885Z,26.70
2019-05-14T05:30:30.873Z,27.09
2019-05-14T05:31:30.862Z,26.89
2019-05-14T05:32:30.866Z,27.00
2019-05-14T05:33:30.854Z,27.39
2019-05-14T05:34:30.822Z,27.00
2019-05-14T05:35:30.841Z,27.31
2019-05-14T05:36:30.822Z,27.09
2019-05-14T05:37:30.822Z,26.81
2019-05-14T05:38:30.786Z,26.91
2019-05-14T05:39:30.777Z,27.21
2019-05-14T05:40:30.776Z,27.11
2019-05-14T05:41:30.781Z,27.21
2019-05-14T05:42:30.768Z,27.21
2019-05-14T05:43:30.751Z,27.91
2019-05-14T05:44:30.733Z,28.41
2019-05-14T05:45:30.705Z,27.81
2019-05-14T05:46:30.710Z,28.41
2019-05-14T05:47:31.029Z,28.41
2019-05-14T05:48:30.698Z,29.31
2019-05-14T05:49:30.667Z,29.01
2019-05-14T05:50:30.677Z,29.10
2019-05-14T05:51:30.652Z,28.39
2019-05-14T05:52:30.663Z,28.50
2019-05-14T05:53:30.689Z,29.30
2019-05-14T05:54:30.653Z,29.19
2019-05-14T05:55:30.609Z,29.10
2019-05-14T05:56:31.543Z,29.00
2019-05-14T05:57:30.577Z,29.00
2019-05-14T05:58:30.654Z,29.78
2019-05-14T05:59:30.572Z,29.58
2019-05-14T06:00:30.546Z,29.78
2019-05-14T06:01:41.766Z,30.38
2019-05-14T06:02:31.319Z,29.98
2019-05-14T06:03:30.638Z,29.28
2019-05-14T06:04:31.520Z,28.78
2019-05-14T06:05:30.504Z,29.78
2019-05-14T06:06:30.506Z,29.78
2019-05-14T06:07:30.476Z,29.68
2019-05-14T06:08:30.459Z,29.38
2019-05-14T06:09:30.503Z,29.97
2019-05-14T06:10:30.470Z,29.67
2019-05-14T06:11:30.457Z,29.77
2019-05-14T06:12:31.719Z,29.58
2019-05-14T06:13:30.409Z,29.88
2019-05-14T06:14:30.400Z,29.77
2019-05-14T06:15:44.639Z,29.97
2019-05-14T06:16:30.390Z,29.77
2019-05-14T06:17:30.381Z,29.47
2019-05-14T06:18:30.370Z,29.48
2019-05-14T06:19:30.353Z,29.86
2019-05-14T06:20:30.334Z,28.77
2019-05-14T06:21:30.370Z,28.97
2019-05-14T06:22:30.334Z,28.97
2019-05-14T06:23:30.308Z,29.47
2019-05-14T06:24:30.292Z,28.97
2019-05-14T06:25:31.141Z,29.06
2019-05-14T06:26:30.277Z,28.87
2019-05-14T06:27:30.631Z,28.97
2019-05-14T06:28:33.584Z,29.57
2019-05-14T06:29:30.239Z,29.47
2019-05-14T06:30:30.430Z,29.27
2019-05-14T06:31:30.221Z,29.06
2019-05-14T06:32:30.236Z,28.97
2019-05-14T06:33:30.198Z,28.67
2019-05-14T06:34:30.242Z,29.47
2019-05-14T06:35:30.175Z,28.47
2019-05-14T06:36:30.176Z,29.17
2019-05-14T06:37:30.298Z,28.87
2019-05-14T06:38:30.795Z,29.27
2019-05-14T06:39:30.132Z,28.47
2019-05-14T06:40:30.151Z,28.97
2019-05-14T06:41:30.135Z,28.77
2019-05-14T06:42:30.948Z,28.27
2019-05-14T06:43:30.194Z,28.37
2019-05-14T06:44:30.087Z,28.07
2019-05-14T06:45:30.092Z,28.77
2019-05-14T06:46:30.066Z,28.27
2019-05-14T06:47:30.048Z,28.47
2019-05-14T06:48:34.507Z,28.77
2019-05-14T06:49:30.023Z,28.98
2019-05-14T06:50:30.034Z,28.67
2019-05-14T06:51:30.035Z,28.98
2019-05-14T06:52:29.993Z,28.27
2019-05-14T06:53:30.008Z,29.18
2019-05-14T06:54:30.018Z,29.28
2019-05-14T06:55:29.963Z,28.98
2019-05-14T06:56:29.960Z,28.97
2019-05-14T06:57:29.930Z,29.06
2019-05-14T06:58:30.063Z,29.27
2019-05-14T06:59:29.918Z,29.27
2019-05-14T07:00:29.897Z,28.88
2019-05-14T07:01:29.889Z,29.06
2019-05-14T07:02:30.107Z,28.97
2019-05-14T07:03:32.633Z,28.47
2019-05-14T07:04:29.868Z,29.06
2019-05-14T07:05:29.877Z,29.28
2019-05-14T07:06:29.850Z,29.06
2019-05-14T07:07:30.300Z,28.57
2019-05-14T07:08:30.832Z,28.88
2019-05-14T07:09:29.826Z,29.48
2019-05-14T07:10:29.800Z,29.18
2019-05-14T07:11:29.781Z,29.17
2019-05-14T07:12:29.797Z,29.27
2019-05-14T07:13:29.793Z,29.47
2019-05-14T07:14:29.754Z,29.17
2019-05-14T07:15:29.758Z,29.28
2019-05-14T07:16:29.741Z,29.06
2019-05-14T07:17:29.732Z,29.47
2019-05-14T07:18:45.153Z,29.27
2019-05-14T07:19:30.726Z,29.06
2019-05-14T07:20:29.699Z,29.36
2019-05-14T07:21:29.876Z,29.38
2019-05-14T07:22:29.667Z,29.47
2019-05-14T07:23:29.668Z,28.97
2019-05-14T07:24:29.659Z,28.97
2019-05-14T07:25:30.399Z,28.97
2019-05-14T07:26:29.815Z,28.77
2019-05-14T07:27:29.616Z,28.77
2019-05-14T07:28:29.630Z,29.06
2019-05-14T07:29:29.819Z,29.57
2019-05-14T07:30:29.596Z,28.98
2019-05-14T07:31:29.594Z,28.77
2019-05-14T07:32:29.556Z,28.88
2019-05-14T07:33:29.650Z,28.77
2019-05-14T07:34:29.548Z,28.98
2019-05-14T07:35:29.538Z,28.77
2019-05-14T07:36:29.608Z,28.97
2019-05-14T07:37:29.524Z,29.77
2019-05-14T07:38:29.545Z,29.67
2019-05-14T07:39:29.508Z,29.77
2019-05-14T07:40:29.477Z,29.77
2019-05-14T07:41:29.465Z,29.98
2019-05-14T07:42:29.453Z,29.97
2019-05-14T07:43:29.444Z,30.66
2019-05-14T07:44:29.855Z,30.46
2019-05-14T07:45:29.432Z,30.16
2019-05-14T07:46:29.450Z,30.27
2019-05-14T07:47:29.398Z,30.07
2019-05-14T07:48:29.390Z,30.57
2019-05-14T07:49:29.410Z,30.46
2019-05-14T07:50:29.376Z,30.96
2019-05-14T07:51:29.365Z,31.16
2019-05-14T07:52:29.358Z,31.87
2019-05-14T07:53:38.538Z,31.57
2019-05-14T07:54:29.338Z,31.46
2019-05-14T07:55:29.354Z,31.46
2019-05-14T07:56:29.719Z,31.37
2019-05-14T07:57:29.304Z,30.87
2019-05-14T07:58:29.306Z,31.26
2019-05-14T07:59:29.275Z,31.26
2019-05-14T08:00:29.293Z,31.57
2019-05-14T08:01:29.266Z,31.57
2019-05-14T08:02:29.234Z,32.17
2019-05-14T08:03:29.243Z,32.06
2019-05-14T08:04:30.215Z,32.17
2019-05-14T08:05:29.227Z,32.06
2019-05-14T08:06:29.217Z,32.05
2019-05-14T08:07:29.212Z,32.06
2019-05-14T08:08:29.474Z,32.06
2019-05-14T08:09:29.162Z,32.06
2019-05-14T08:10:29.165Z,31.96
2019-05-14T08:11:29.177Z,32.36
2019-05-14T08:12:29.135Z,32.05
2019-05-14T08:13:29.133Z,32.05
2019-05-14T08:14:39.933Z,32.15
2019-05-14T08:15:29.110Z,32.25
2019-05-14T08:16:29.324Z,32.05
2019-05-14T08:17:29.079Z,32.25
2019-05-14T08:18:29.362Z,32.25
2019-05-14T08:19:31.389Z,32.25
2019-05-14T08:20:29.047Z,32.25
2019-05-14T08:21:29.441Z,32.55
2019-05-14T08:22:29.291Z,32.05
2019-05-14T08:23:29.039Z,32.15
2019-05-14T08:24:30.127Z,31.95
2019-05-14T08:25:29.013Z,32.05
2019-05-14T08:26:29.485Z,32.05
2019-05-14T08:27:31.102Z,31.85
2019-05-14T08:28:29.187Z,31.55
2019-05-14T08:29:28.950Z,31.95
2019-05-14T08:30:28.939Z,32.15
2019-05-14T08:31:29.394Z,32.15
2019-05-14T08:32:28.911Z,32.05
2019-05-14T08:33:29.226Z,31.65
2019-05-14T08:34:32.183Z,31.95
2019-05-14T08:35:29.111Z,32.15
2019-05-14T08:36:28.876Z,31.55
2019-05-14T08:37:28.871Z,32.15
2019-05-14T08:38:28.857Z,31.95
2019-05-14T08:39:28.849Z,32.15
2019-05-14T08:40:28.891Z,31.85
2019-05-14T08:41:29.029Z,32.25
2019-05-14T08:42:29.186Z,32.35
2019-05-14T08:43:29.342Z,32.25
2019-05-14T08:44:29.499Z,32.35
2019-05-14T08:45:28.789Z,32.05
2019-05-14T08:46:28.789Z,32.65
2019-05-14T08:47:29.230Z,32.65
2019-05-14T08:48:29.627Z,32.05
2019-05-14T08:49:38.929Z,32.55
2019-05-14T08:50:28.746Z,31.93
2019-05-14T08:51:29.488Z,32.65
2019-05-14T08:52:28.977Z,31.85
2019-05-14T08:53:29.138Z,32.15
2019-05-14T08:54:28.678Z,31.95
2019-05-14T08:55:29.649Z,31.85
2019-05-14T08:56:28.657Z,31.95
2019-05-14T08:57:29.315Z,32.35
2019-05-14T08:58:29.977Z,32.33
2019-05-14T08:59:28.851Z,31.85
2019-05-14T09:00:29.154Z,32.14
2019-05-14T09:01:29.267Z,32.95
2019-05-14T09:02:28.807Z,32.75
2019-05-14T09:03:28.965Z,32.63
2019-05-14T09:04:30.154Z,32.55
2019-05-14T09:05:28.795Z,32.83
2019-05-14T09:06:29.049Z,32.85
2019-05-14T09:07:29.036Z,33.35
2019-05-14T09:08:28.631Z,32.85
2019-05-14T09:09:29.285Z,33.13
2019-05-14T09:10:28.677Z,33.03
2019-05-14T09:11:35.675Z,33.04
2019-05-14T09:12:28.881Z,32.95
2019-05-14T09:13:29.071Z,33.15
2019-05-14T09:14:28.467Z,33.33
2019-05-14T09:15:29.871Z,33.13
2019-05-14T09:16:41.838Z,33.33
2019-05-14T09:17:28.961Z,32.93
2019-05-14T09:18:29.072Z,33.23
2019-05-14T09:19:28.821Z,33.03
2019-05-14T09:20:28.986Z,32.73
2019-05-14T09:21:29.654Z,33.35
2019-05-14T09:22:28.908Z,33.25
2019-05-14T09:23:28.833Z,33.35
2019-05-14T09:24:29.073Z,33.43
2019-05-14T09:25:29.151Z,33.03
2019-05-14T09:26:28.580Z,33.23
2019-05-14T09:27:29.267Z,33.54
2019-05-14T09:28:28.677Z,32.75
2019-05-14T09:29:29.771Z,32.25
2019-05-14T09:30:29.065Z,32.14
2019-05-14T09:31:31.137Z,31.43
2019-05-14T09:32:29.128Z,31.35
2019-05-14T09:33:29.693Z,32.03
2019-05-14T09:34:29.103Z,33.03
2019-05-14T09:35:29.290Z,32.83
2019-05-14T09:36:28.930Z,32.03
2019-05-14T09:37:28.939Z,31.84
2019-05-14T09:38:29.282Z,31.85
2019-05-14T09:39:29.139Z,30.35
2019-05-14T09:40:29.096Z,32.35
2019-05-14T09:41:30.839Z,31.45
2019-05-14T09:42:28.734Z,31.25
2019-05-14T09:43:29.189Z,31.35
2019-05-14T09:44:29.370Z,31.25
2019-05-14T09:45:28.282Z,31.37
2019-05-14T09:46:28.926Z,31.55
2019-05-14T09:47:28.531Z,31.67
2019-05-14T09:48:28.609Z,31.16
2019-05-14T09:49:29.087Z,30.77
2019-05-14T09:50:29.140Z,31.35
2019-05-14T09:51:28.860Z,31.67
2019-05-14T09:52:29.323Z,31.57
2019-05-14T09:53:28.899Z,31.57
2019-05-14T09:54:28.662Z,31.76
2019-05-14T09:55:28.244Z,31.26
2019-05-14T09:56:29.131Z,31.26
2019-05-14T09:57:28.320Z,31.67
2019-05-14T09:58:28.377Z,31.46
2019-05-14T09:59:28.147Z,31.87
2019-05-14T10:00:29.415Z,31.16
2019-05-14T10:01:27.985Z,30.57
2019-05-14T10:02:28.333Z,30.07
2019-05-14T10:03:27.933Z,29.77
2019-05-14T10:04:27.939Z,30.27
2019-05-14T10:05:27.962Z,30.36
2019-05-14T10:06:28.574Z,30.07
2019-05-14T10:07:28.766Z,30.46
2019-05-14T10:08:28.605Z,30.87
2019-05-14T10:09:28.994Z,30.16
2019-05-14T10:10:30.371Z,30.87
2019-05-14T10:11:28.794Z,30.16
2019-05-14T10:12:27.831Z,30.57
2019-05-14T10:13:28.289Z,30.66
2019-05-14T10:14:29.800Z,30.66
2019-05-14T10:15:28.639Z,30.27
2019-05-14T10:16:29.087Z,29.58
2019-05-14T10:17:29.014Z,29.57
2019-05-14T10:18:28.487Z,29.78
2019-05-14T10:19:29.580Z,29.57
2019-05-14T10:20:40.208Z,29.17
2019-05-14T10:21:29.292Z,28.97
2019-05-14T10:22:28.570Z,29.18
2019-05-14T10:23:28.351Z,28.98
2019-05-14T10:24:29.079Z,29.06
2019-05-14T10:25:28.711Z,28.97
2019-05-14T10:26:28.831Z,28.98
2019-05-14T10:27:28.468Z,28.88
2019-05-14T10:28:28.784Z,28.87
2019-05-14T10:29:28.625Z,29.08
2019-05-14T10:30:28.565Z,28.87
2019-05-14T10:31:28.975Z,29.57
2019-05-14T10:32:29.505Z,29.57
2019-05-14T10:33:28.895Z,29.06
2019-05-14T10:34:28.731Z,29.57
2019-05-14T10:35:28.582Z,28.77
2019-05-14T10:36:30.004Z,28.97
2019-05-14T10:37:28.804Z,29.06
2019-05-14T10:38:29.524Z,29.77
2019-05-14T10:39:29.789Z,29.47
2019-05-14T10:40:29.204Z,29.47
2019-05-14T10:41:29.026Z,29.47
2019-05-14T10:42:29.378Z,29.47
2019-05-14T10:43:28.872Z,29.57
2019-05-14T10:44:29.301Z,29.77
2019-05-14T10:45:28.860Z,29.17
2019-05-14T10:46:29.087Z,29.86
2019-05-14T10:47:29.156Z,28.77
2019-05-14T10:48:29.113Z,28.75
2019-05-14T10:49:29.904Z,28.75
2019-05-14T10:50:28.942Z,28.77
2019-05-14T10:51:28.307Z,28.75
2019-05-14T10:52:28.856Z,29.15
2019-05-14T10:53:28.929Z,28.75
2019-05-14T10:54:29.197Z,28.75
2019-05-14T10:55:27.956Z,28.85
2019-05-14T10:56:29.804Z,28.96
2019-05-14T10:57:43.833Z,28.75
2019-05-14T10:58:29.017Z,29.05
2019-05-14T10:59:29.406Z,29.46
2019-05-14T11:00:28.411Z,28.36
2019-05-14T11:01:28.450Z,28.36
2019-05-14T11:02:29.161Z,28.36
2019-05-14T11:03:30.125Z,28.36
2019-05-14T11:04:28.619Z,28.66
2019-05-14T11:05:28.172Z,28.96
2019-05-14T11:06:29.355Z,29.05
2019-05-14T11:07:29.212Z,28.96
2019-05-14T11:08:29.603Z,28.45
2019-05-14T11:09:28.614Z,28.36
2019-05-14T11:10:29.811Z,29.25
2019-05-14T11:11:29.071Z,29.25
2019-05-14T11:12:29.693Z,29.44
2019-05-14T11:13:29.195Z,28.85
2019-05-14T11:14:31.388Z,28.94
2019-05-14T11:15:28.448Z,29.04
2019-05-14T11:16:28.367Z,28.94
2019-05-14T11:17:29.058Z,29.75
2019-05-14T11:18:29.095Z,29.75
2019-05-14T11:19:28.714Z,29.94
2019-05-14T11:20:31.090Z,29.64
2019-05-14T11:21:30.052Z,29.44
2019-05-14T11:22:28.828Z,30.05
2019-05-14T11:23:29.706Z,30.25
2019-05-14T11:24:29.326Z,30.63
2019-05-14T11:25:28.791Z,30.44
2019-05-14T11:26:29.485Z,30.04
2019-05-14T11:27:29.269Z,30.44
2019-05-14T11:28:28.640Z,30.83
2019-05-14T11:29:29.596Z,31.04
2019-05-14T11:30:28.737Z,31.04
2019-05-14T11:31:29.283Z,31.34
2019-05-14T11:32:29.122Z,30.83
2019-05-14T11:33:29.511Z,31.34
2019-05-14T11:34:28.732Z,31.93
2019-05-14T11:35:28.861Z,32.03
2019-05-14T11:36:28.849Z,32.03
2019-05-14T11:37:28.145Z,32.14
2019-05-14T11:38:33.235Z,31.62
2019-05-14T11:39:28.771Z,32.83
2019-05-14T11:40:29.139Z,32.92
2019-05-14T11:41:26.882Z,33.01
2019-05-14T11:42:31.178Z,33.51
2019-05-14T11:43:28.679Z,33.12
2019-05-14T11:44:28.573Z,32.92
2019-05-14T11:45:26.851Z,32.92
2019-05-14T11:46:40.871Z,32.53
2019-05-14T11:47:26.843Z,32.82
2019-05-14T11:48:26.790Z,32.71
2019-05-14T11:49:26.812Z,32.23
2019-05-14T11:50:28.639Z,32.14
2019-05-14T11:51:54.782Z,32.23
2019-05-14T11:52:28.678Z,32.23
2019-05-14T11:53:26.742Z,32.32
2019-05-14T11:54:29.041Z,31.84
2019-05-14T11:55:26.735Z,32.02
2019-05-14T11:56:29.337Z,32.33
2019-05-14T11:57:26.711Z,32.32
2019-05-14T11:58:29.264Z,32.14
2019-05-14T11:59:28.454Z,32.02
2019-05-14T12:00:29.351Z,32.03
2019-05-14T12:01:29.619Z,32.33
2019-05-14T12:02:28.803Z,32.92
2019-05-14T12:03:28.586Z,32.83
2019-05-14T12:04:28.396Z,33.12
2019-05-14T12:05:26.635Z,33.13
2019-05-14T12:06:26.602Z,33.42
2019-05-14T12:07:28.030Z,32.73
2019-05-14T12:08:28.677Z,32.22
2019-05-14T12:09:28.377Z,33.61
2019-05-14T12:10:29.145Z,34.31
2019-05-14T12:11:28.923Z,33.51
2019-05-14T12:12:28.829Z,33.51
2019-05-14T12:13:32.122Z,33.51
2019-05-14T12:14:26.534Z,33.81
2019-05-14T12:15:26.727Z,34.31
2019-05-14T12:16:29.130Z,34.01
2019-05-14T12:17:29.279Z,34.01
2019-05-14T12:18:29.006Z,34.21
2019-05-14T12:19:28.414Z,34.11
2019-05-14T12:20:29.436Z,34.21
2019-05-14T12:21:28.878Z,33.01
2019-05-14T12:22:28.597Z,34.21
2019-05-14T12:23:26.447Z,32.22
2019-05-14T12:24:29.006Z,32.92
2019-05-14T12:25:29.211Z,33.22
2019-05-14T12:26:28.267Z,32.92
2019-05-14T12:27:26.380Z,32.92
2019-05-14T12:28:28.955Z,33.01
2019-05-14T12:29:29.275Z,32.82
2019-05-14T12:30:28.654Z,32.52
2019-05-14T12:31:28.796Z,33.31
2019-05-14T12:32:26.318Z,31.62
2019-05-14T12:33:29.548Z,32.02
2019-05-14T12:34:29.259Z,31.63
2019-05-14T12:35:29.025Z,31.42
2019-05-14T12:36:29.057Z,31.13
2019-05-14T12:37:28.798Z,31.42
2019-05-14T12:38:29.514Z,31.13
2019-05-14T12:39:26.253Z,30.74
2019-05-14T12:40:28.667Z,30.22
2019-05-14T12:41:28.730Z,30.33
2019-05-14T12:42:26.211Z,30.14
2019-05-14T12:43:28.200Z,30.54
2019-05-14T12:44:28.901Z,29.74
2019-05-14T12:45:26.191Z,29.74
2019-05-14T12:46:26.169Z,29.94
2019-05-14T12:47:26.155Z,29.64
2019-05-14T12:48:26.146Z,29.94
2019-05-14T12:49:26.149Z,29.74
2019-05-14T12:50:26.149Z,28.94
2019-05-14T12:51:26.109Z,29.24
2019-05-14T12:52:26.388Z,29.24